createdAt,value
2023-04-25T00:00:47.843Z,46.29
2023-04-25T00:02:29.183Z,45.20
2023-04-25T00:04:10.940Z,45.44
2023-04-25T00:05:52.455Z,45.25
2023-04-25T00:07:33.764Z,45.50
2023-04-25T00:09:15.043Z,45.99
2023-04-25T00:10:56.366Z,44.39
2023-04-25T00:12:37.665Z,43.82
2023-04-25T00:14:18.962Z,44.44
2023-04-25T00:16:00.265Z,44.49
2023-04-25T00:17:41.607Z,43.31
2023-04-25T00:19:22.940Z,43.60
2023-04-25T00:21:04.230Z,43.19
2023-04-25T00:22:45.563Z,42.83
2023-04-25T00:24:26.872Z,42.25
2023-04-25T00:26:08.195Z,42.28
2023-04-25T00:27:49.472Z,42.19
2023-04-25T00:29:30.772Z,42.41
2023-04-25T00:31:12.055Z,43.02
2023-04-25T00:32:53.388Z,43.37
2023-04-25T00:34:34.682Z,42.60
2023-04-25T00:36:16.000Z,44.14
2023-04-25T00:37:57.288Z,43.21
2023-04-25T00:39:38.589Z,43.49
2023-04-25T00:41:19.857Z,43.54
2023-04-25T00:43:01.374Z,43.70
2023-04-25T00:44:42.715Z,43.03
2023-04-25T00:46:24.055Z,42.65
2023-04-25T00:48:05.490Z,43.53
2023-04-25T00:49:46.815Z,42.62
2023-04-25T00:51:28.082Z,43.09
2023-04-25T00:53:09.363Z,41.69
2023-04-25T00:54:50.701Z,42.70
2023-04-25T00:56:31.963Z,42.49
2023-04-25T00:58:13.239Z,41.70
2023-04-25T00:59:54.541Z,42.17
2023-04-25T01:01:35.832Z,41.47
2023-04-25T01:03:17.380Z,42.68
2023-04-25T01:04:58.882Z,43.75
2023-04-25T01:06:40.248Z,45.40
2023-04-25T01:08:21.585Z,46.44
2023-04-25T01:10:02.904Z,46.60
2023-04-25T01:11:44.219Z,45.46
2023-04-25T01:13:25.562Z,45.68
2023-04-25T01:15:06.877Z,45.76
2023-04-25T01:16:48.226Z,46.51
2023-04-25T01:18:29.578Z,46.29
2023-04-25T01:20:10.900Z,46.07
2023-04-25T01:21:52.224Z,45.66
2023-04-25T01:23:33.513Z,45.31
2023-04-25T01:25:14.800Z,44.95
2023-04-25T01:26:56.129Z,44.89
2023-04-25T01:28:37.440Z,44.37
2023-04-25T01:30:18.754Z,42.95
2023-04-25T01:32:00.083Z,42.34
2023-04-25T01:33:41.417Z,44.23
2023-04-25T01:35:22.705Z,44.58
2023-04-25T01:37:03.992Z,44.66
2023-04-25T01:38:45.268Z,45.54
2023-04-25T01:40:26.572Z,45.40
2023-04-25T01:42:07.864Z,46.67
2023-04-25T01:43:49.425Z,44.50
2023-04-25T01:45:30.933Z,44.44
2023-04-25T01:47:12.231Z,43.74
2023-04-25T01:48:53.499Z,44.30
2023-04-25T01:50:34.824Z,44.70
2023-04-25T01:52:16.146Z,44.21
2023-04-25T01:53:58.377Z,43.51
2023-04-25T01:55:40.601Z,44.63
2023-04-25T01:57:21.906Z,44.67
2023-04-25T01:59:03.294Z,44.42
2023-04-25T02:00:44.561Z,44.27
2023-04-25T02:02:25.974Z,43.18
2023-04-25T02:04:07.566Z,43.96
2023-04-25T02:05:49.027Z,43.47
2023-04-25T02:07:30.349Z,43.17
2023-04-25T02:09:11.651Z,42.04
2023-04-25T02:10:52.962Z,42.31
2023-04-25T02:12:34.258Z,45.33
2023-04-25T02:14:15.555Z,44.58
2023-04-25T02:15:56.912Z,44.81
2023-04-25T02:17:38.253Z,44.14
2023-04-25T02:19:19.555Z,43.55
2023-04-25T02:21:00.856Z,45.47
2023-04-25T02:22:42.137Z,44.37
2023-04-25T02:24:23.428Z,44.72
2023-04-25T02:26:04.772Z,44.47
2023-04-25T02:27:46.041Z,43.69
2023-04-25T02:29:27.340Z,43.78
2023-04-25T02:31:08.678Z,44.25
2023-04-25T02:32:50.023Z,44.70
2023-04-25T02:34:31.360Z,44.14
2023-04-25T02:36:12.646Z,43.87
2023-04-25T02:37:53.962Z,45.37
2023-04-25T02:39:35.277Z,43.76
2023-04-25T02:41:16.565Z,44.09
2023-04-25T02:42:57.819Z,45.13
2023-04-25T02:44:39.150Z,43.34
2023-04-25T02:46:32.291Z,43.30
2023-04-25T02:48:20.074Z,43.23
2023-04-25T02:50:01.428Z,42.35
2023-04-25T02:51:42.727Z,41.10
2023-04-25T02:53:24.049Z,40.74
2023-04-25T02:55:05.341Z,40.14
2023-04-25T02:56:46.611Z,41.84
2023-04-25T02:58:27.906Z,41.33
2023-04-25T03:00:09.209Z,41.57
2023-04-25T03:01:50.544Z,41.78
2023-04-25T03:03:31.817Z,41.17
2023-04-25T03:05:13.163Z,41.05
2023-04-25T03:06:54.431Z,40.66
2023-04-25T03:08:35.717Z,40.42
2023-04-25T03:10:17.091Z,39.79
2023-04-25T03:11:58.399Z,39.17
2023-04-25T03:13:39.668Z,38.89
2023-04-25T03:15:20.987Z,38.88
2023-04-25T03:17:02.366Z,38.18
2023-04-25T03:18:43.861Z,38.06
2023-04-25T03:20:25.187Z,38.86
2023-04-25T03:22:06.488Z,41.02
2023-04-25T03:23:47.852Z,42.32
2023-04-25T03:25:29.217Z,41.97
2023-04-25T03:27:10.526Z,41.25
2023-04-25T03:28:51.824Z,40.74
2023-04-25T03:30:33.093Z,39.77
2023-04-25T03:32:14.469Z,41.00
2023-04-25T03:33:55.860Z,41.47
2023-04-25T03:35:37.163Z,41.94
2023-04-25T03:37:18.465Z,40.82
2023-04-25T03:38:59.789Z,40.55
2023-04-25T03:40:41.149Z,40.09
2023-04-25T03:42:22.555Z,41.36
2023-04-25T03:44:03.851Z,41.84
2023-04-25T03:45:45.153Z,40.66
2023-04-25T03:47:26.473Z,40.30
2023-04-25T03:49:07.772Z,39.83
2023-04-25T03:50:49.087Z,40.80
2023-04-25T03:52:30.464Z,42.44
2023-04-25T03:54:11.719Z,45.42
2023-04-25T03:55:52.996Z,46.06
2023-04-25T03:57:34.280Z,44.27
2023-04-25T03:59:15.543Z,44.19
2023-04-25T04:00:56.841Z,43.49
2023-04-25T04:02:38.309Z,43.53
2023-04-25T04:04:20.056Z,44.83
2023-04-25T04:06:01.492Z,45.28
2023-04-25T04:07:42.760Z,46.43
2023-04-25T04:09:24.051Z,46.53
2023-04-25T04:11:05.346Z,46.93
2023-04-25T04:12:46.662Z,45.96
2023-04-25T04:14:27.958Z,44.85
2023-04-25T04:16:09.260Z,44.22
2023-04-25T04:17:50.667Z,43.74
2023-04-25T04:19:31.999Z,43.92
2023-04-25T04:21:13.264Z,45.10
2023-04-25T04:22:54.565Z,45.53
2023-04-25T04:24:35.874Z,45.43
2023-04-25T04:26:17.160Z,44.66
2023-04-25T04:27:58.463Z,46.44
2023-04-25T04:29:39.798Z,46.51
2023-04-25T04:31:21.099Z,45.16
2023-04-25T04:33:02.448Z,46.21
2023-04-25T04:34:43.847Z,47.20
2023-04-25T04:36:25.135Z,46.95
2023-04-25T04:38:06.402Z,47.23
2023-04-25T04:39:47.728Z,46.25
2023-04-25T04:41:29.022Z,46.00
2023-04-25T04:43:10.358Z,46.86
2023-04-25T04:44:51.724Z,46.22
2023-04-25T04:46:33.037Z,46.37
2023-04-25T04:48:14.312Z,45.21
2023-04-25T04:49:55.601Z,45.20
2023-04-25T04:51:36.910Z,45.29
2023-04-25T04:53:18.206Z,45.06
2023-04-25T04:54:59.516Z,45.71
2023-04-25T04:56:40.784Z,47.15
2023-04-25T04:58:22.079Z,48.61
2023-04-25T05:00:03.375Z,47.54
2023-04-25T05:01:44.809Z,48.34
2023-04-25T05:03:26.191Z,47.42
2023-04-25T05:05:07.595Z,48.48
2023-04-25T05:06:49.236Z,47.92
2023-04-25T05:08:30.659Z,49.49
2023-04-25T05:10:11.907Z,51.55
2023-04-25T05:11:53.172Z,53.65
2023-04-25T05:13:34.466Z,55.61
2023-04-25T05:15:15.760Z,54.30
2023-04-25T05:16:57.158Z,54.97
2023-04-25T05:18:38.574Z,55.81
2023-04-25T05:20:19.858Z,55.48
2023-04-25T05:22:01.139Z,56.75
2023-04-25T05:23:42.444Z,57.12
2023-04-25T05:25:23.718Z,55.85
2023-04-25T05:27:05.067Z,55.37
2023-04-25T05:28:46.372Z,53.96
2023-04-25T05:30:27.669Z,53.01
2023-04-25T05:32:09.046Z,53.87
2023-04-25T05:33:50.616Z,54.30
2023-04-25T05:35:32.208Z,52.62
2023-04-25T05:37:13.527Z,51.47
2023-04-25T05:38:54.820Z,52.55
2023-04-25T05:40:36.135Z,52.69
2023-04-25T05:42:17.426Z,52.57
2023-04-25T05:43:58.877Z,52.77
2023-04-25T05:45:40.442Z,52.36
2023-04-25T05:47:21.762Z,52.28
2023-04-25T05:49:03.071Z,52.55
2023-04-25T05:50:44.400Z,51.37
2023-04-25T05:52:25.712Z,51.84
2023-04-25T05:54:07.056Z,52.81
2023-04-25T05:55:48.357Z,53.52
2023-04-25T05:57:29.704Z,53.20
2023-04-25T05:59:11.010Z,52.42
2023-04-25T06:00:52.289Z,52.93
2023-04-25T06:02:33.727Z,54.03
2023-04-25T06:04:15.206Z,54.00
2023-04-25T06:05:56.930Z,53.22
2023-04-25T06:07:38.315Z,54.64
2023-04-25T06:09:19.602Z,53.80
2023-04-25T06:11:00.903Z,53.69
2023-04-25T06:12:42.175Z,54.78
2023-04-25T06:14:27.204Z,56.12
2023-04-25T06:16:09.613Z,55.67
2023-04-25T06:17:50.968Z,55.71
2023-04-25T06:19:32.271Z,57.40
2023-04-25T06:21:13.573Z,57.28
2023-04-25T06:22:54.990Z,57.27
2023-04-25T06:24:36.323Z,56.46
2023-04-25T06:26:17.599Z,55.35
2023-04-25T06:27:58.926Z,55.44
2023-04-25T06:29:40.236Z,55.13
2023-04-25T06:31:21.548Z,55.54
2023-04-25T06:33:02.922Z,55.09
2023-04-25T06:34:44.259Z,53.96
2023-04-25T06:36:25.551Z,53.91
2023-04-25T06:38:06.896Z,54.08
2023-04-25T06:39:48.229Z,54.16
2023-04-25T06:41:29.526Z,56.19
2023-04-25T06:43:10.826Z,56.69
2023-04-25T06:44:52.181Z,56.41
2023-04-25T06:46:33.498Z,57.77
2023-04-25T06:48:14.787Z,57.98
2023-04-25T06:49:56.126Z,57.47
2023-04-25T06:51:37.430Z,56.03
2023-04-25T06:53:18.744Z,56.22
2023-04-25T06:55:00.039Z,56.69
2023-04-25T06:56:41.309Z,56.64
2023-04-25T06:58:22.594Z,56.67
2023-04-25T07:00:03.903Z,56.24
2023-04-25T07:01:45.286Z,56.56
2023-04-25T07:03:26.726Z,56.78
2023-04-25T07:05:08.180Z,55.50
2023-04-25T07:06:49.472Z,54.98
2023-04-25T07:08:30.805Z,53.67
2023-04-25T07:10:12.126Z,52.80
2023-04-25T07:11:53.393Z,53.77
2023-04-25T07:13:34.646Z,55.23
2023-04-25T07:15:15.948Z,54.58
2023-04-25T07:16:57.347Z,55.32
2023-04-25T07:18:38.730Z,54.61
2023-04-25T07:20:20.043Z,53.52
2023-04-25T07:22:01.396Z,53.09
2023-04-25T07:23:42.665Z,53.23
2023-04-25T07:25:23.967Z,52.30
2023-04-25T07:27:05.279Z,52.53
2023-04-25T07:28:46.573Z,53.96
2023-04-25T07:30:28.080Z,53.58
2023-04-25T07:32:09.474Z,52.66
2023-04-25T07:33:50.822Z,52.24
2023-04-25T07:35:32.258Z,51.81
2023-04-25T07:37:13.558Z,51.62
2023-04-25T07:38:54.869Z,53.09
2023-04-25T07:40:36.167Z,53.31
2023-04-25T07:42:17.509Z,53.89
2023-04-25T07:43:58.819Z,54.15
2023-04-25T07:45:40.134Z,54.45
2023-04-25T07:47:21.514Z,55.04
2023-04-25T07:49:02.840Z,54.60
2023-04-25T07:50:44.156Z,55.12
2023-04-25T07:52:25.425Z,55.35
2023-04-25T07:54:06.760Z,55.35
2023-04-25T07:55:48.078Z,54.00
2023-04-25T07:57:29.423Z,51.64
2023-04-25T07:59:10.721Z,51.92
2023-04-25T08:00:52.005Z,52.08
2023-04-25T08:02:33.508Z,54.46
2023-04-25T08:04:14.974Z,53.34
2023-04-25T08:05:56.527Z,52.73
2023-04-25T08:07:37.881Z,52.40
2023-04-25T08:09:19.186Z,52.89
2023-04-25T08:11:00.547Z,52.43
2023-04-25T08:12:42.158Z,51.95
2023-04-25T08:14:23.493Z,52.30
2023-04-25T08:16:04.837Z,51.70
2023-04-25T08:17:46.190Z,51.71
2023-04-25T08:19:27.475Z,52.05
2023-04-25T08:21:08.808Z,53.37
2023-04-25T08:22:50.122Z,54.20
2023-04-25T08:24:31.417Z,53.91
2023-04-25T08:26:12.720Z,55.16
2023-04-25T08:27:54.037Z,55.78
2023-04-25T08:29:35.334Z,54.15
2023-04-25T08:31:16.645Z,54.01
2023-04-25T08:32:57.996Z,54.86
2023-04-25T08:34:39.386Z,54.23
2023-04-25T08:36:31.497Z,54.02
2023-04-25T08:38:19.620Z,56.25
2023-04-25T08:40:00.971Z,54.46
2023-04-25T08:41:42.251Z,53.72
2023-04-25T08:43:23.526Z,51.54
2023-04-25T08:45:07.095Z,51.77
2023-04-25T08:46:48.949Z,52.72
2023-04-25T08:48:31.518Z,53.71
2023-04-25T08:50:12.853Z,54.72
2023-04-25T08:51:54.301Z,56.46
2023-04-25T08:53:36.296Z,56.73
2023-04-25T08:55:17.785Z,55.07
2023-04-25T08:56:59.084Z,56.67
2023-04-25T08:58:40.379Z,58.42
2023-04-25T09:00:21.740Z,60.85
2023-04-25T09:02:03.129Z,61.45
2023-04-25T09:03:44.584Z,61.03
2023-04-25T09:05:26.242Z,61.56
2023-04-25T09:07:07.590Z,62.69
2023-04-25T09:08:48.858Z,63.55
2023-04-25T09:10:33.075Z,63.61
2023-04-25T09:12:14.424Z,64.84
2023-04-25T09:13:55.780Z,62.58
2023-04-25T09:15:37.074Z,61.96
2023-04-25T09:17:18.359Z,63.59
2023-04-25T09:18:59.670Z,63.81
2023-04-25T09:22:26.788Z,64.95
2023-04-25T09:24:08.103Z,66.31
2023-04-25T09:25:49.370Z,68.71
2023-04-25T09:27:30.696Z,68.20
2023-04-25T09:29:12.019Z,67.42
2023-04-25T09:30:53.329Z,68.54
2023-04-25T09:32:34.827Z,70.66
2023-04-25T09:34:16.163Z,67.39
2023-04-25T09:35:57.482Z,68.05
2023-04-25T09:37:38.853Z,68.91
2023-04-25T09:39:20.232Z,68.10
2023-04-25T09:41:01.538Z,67.38
2023-04-25T09:42:42.862Z,66.93
2023-04-25T09:44:24.197Z,66.14
2023-04-25T09:46:05.536Z,66.09
2023-04-25T09:47:46.875Z,65.32
2023-04-25T09:49:28.178Z,66.37
2023-04-25T09:51:09.517Z,66.15
2023-04-25T09:52:50.788Z,65.56
2023-04-25T09:54:32.069Z,63.58
2023-04-25T09:56:13.381Z,64.36
2023-04-25T09:57:54.708Z,64.58
2023-04-25T09:59:36.001Z,63.95
2023-04-25T10:01:17.401Z,64.58
2023-04-25T10:02:58.797Z,63.57
2023-04-25T10:04:40.345Z,62.04
2023-04-25T10:06:21.730Z,62.40
2023-04-25T10:08:02.992Z,62.45
2023-04-25T10:09:44.248Z,61.62
2023-04-25T10:11:25.654Z,59.39
2023-04-25T10:13:06.974Z,57.58
2023-04-25T10:14:48.340Z,55.83
2023-04-25T10:16:29.813Z,54.28
2023-04-25T10:18:11.327Z,52.59
2023-04-25T10:19:52.676Z,53.07
2023-04-25T10:21:33.964Z,53.15
2023-04-25T10:23:15.306Z,52.02
2023-04-25T10:24:56.640Z,50.38
2023-04-25T10:26:37.937Z,48.33
2023-04-25T10:28:19.306Z,49.42
2023-04-25T10:30:00.599Z,47.45
2023-04-25T10:31:41.977Z,48.80
2023-04-25T10:33:23.460Z,47.01
2023-04-25T10:35:04.756Z,46.63
2023-04-25T10:36:46.036Z,45.48
2023-04-25T10:38:27.309Z,43.16
2023-04-25T10:40:08.581Z,42.06
2023-04-25T10:41:49.887Z,40.45
2023-04-25T10:43:31.193Z,40.77
2023-04-25T10:45:12.489Z,40.83
2023-04-25T10:46:53.809Z,41.22
2023-04-25T10:48:35.201Z,45.23
2023-04-25T10:50:16.517Z,47.73
2023-04-25T10:51:57.886Z,46.42
2023-04-25T10:53:39.202Z,46.63
2023-04-25T10:55:20.860Z,46.07
2023-04-25T10:57:02.195Z,46.18
2023-04-25T10:58:43.484Z,45.53
2023-04-25T11:00:25.860Z,47.96
2023-04-25T11:02:12.189Z,47.99
2023-04-25T11:03:53.719Z,44.20
2023-04-25T11:05:43.769Z,43.25
2023-04-25T11:07:32.520Z,43.35
2023-04-25T11:09:13.850Z,42.97
2023-04-25T11:10:55.157Z,42.75
2023-04-25T11:12:36.450Z,42.09
2023-04-25T11:14:17.892Z,42.72
2023-04-25T11:16:07.388Z,39.68
2023-04-25T11:17:54.588Z,41.14
2023-04-25T11:19:35.949Z,38.08
2023-04-25T11:21:17.252Z,37.92
2023-04-25T11:22:58.544Z,37.27
2023-04-25T11:24:39.890Z,38.24
2023-04-25T11:26:21.211Z,39.54
2023-04-25T11:28:02.562Z,34.99
2023-04-25T11:29:43.899Z,36.39
2023-04-25T11:31:25.979Z,37.96
2023-04-25T11:33:07.740Z,40.56
2023-04-25T11:34:49.090Z,40.95
2023-04-25T11:36:30.423Z,43.07
2023-04-25T11:38:11.975Z,43.73
2023-04-25T11:39:53.651Z,42.67
2023-04-25T11:41:35.146Z,43.57
2023-04-25T11:43:16.797Z,43.96
2023-04-25T11:44:58.436Z,44.21
2023-04-25T11:46:39.814Z,43.87
2023-04-25T11:48:22.147Z,44.39
2023-04-25T11:50:07.706Z,45.16
2023-04-25T11:51:49.000Z,44.71
2023-04-25T11:53:30.290Z,43.69
2023-04-25T11:55:11.737Z,43.14
2023-04-25T11:56:53.069Z,42.67
2023-04-25T11:58:34.921Z,43.31
2023-04-25T12:00:18.661Z,43.79
2023-04-25T12:02:00.496Z,42.33
2023-04-25T12:03:41.885Z,43.51
2023-04-25T12:07:09.781Z,43.62
2023-04-25T12:08:51.477Z,42.66
2023-04-25T12:10:32.947Z,42.72
2023-04-25T12:12:14.270Z,43.58
2023-04-25T12:13:55.640Z,44.70
2023-04-25T12:15:36.947Z,46.56
2023-04-25T12:17:18.235Z,48.01
2023-04-25T12:18:59.787Z,49.71
2023-04-25T12:20:41.297Z,52.75
2023-04-25T12:22:22.812Z,53.18
2023-04-25T12:24:04.364Z,56.50
2023-04-25T12:25:45.896Z,55.78
2023-04-25T12:27:27.380Z,57.00
2023-04-25T12:29:08.932Z,57.45
2023-04-25T12:30:50.427Z,59.52
2023-04-25T12:32:32.065Z,57.05
2023-04-25T12:34:13.681Z,57.65
2023-04-25T12:35:55.082Z,55.51
2023-04-25T12:37:36.594Z,54.34
2023-04-25T12:39:18.146Z,51.74
2023-04-25T12:40:59.627Z,51.30
2023-04-25T12:42:41.081Z,50.19
2023-04-25T12:44:22.435Z,49.46
2023-04-25T12:46:03.698Z,50.25
2023-04-25T12:47:45.736Z,51.17
2023-04-25T12:49:27.280Z,51.06
2023-04-25T12:51:08.780Z,50.84
2023-04-25T12:52:50.478Z,49.70
2023-04-25T12:54:32.019Z,49.86
2023-04-25T12:56:13.463Z,49.42
2023-04-25T12:57:54.945Z,48.46
2023-04-25T12:59:36.244Z,48.65
2023-04-25T13:01:17.537Z,47.82
2023-04-25T13:02:59.189Z,49.27
2023-04-25T13:04:40.747Z,49.70
2023-04-25T13:06:22.066Z,49.14
2023-04-25T13:08:03.379Z,48.94
2023-04-25T13:09:44.701Z,49.04
2023-04-25T13:11:25.993Z,47.73
2023-04-25T13:13:07.909Z,48.58
2023-04-25T13:14:49.587Z,48.48
2023-04-25T13:16:31.153Z,48.11
2023-04-25T13:18:12.607Z,50.02
2023-04-25T13:19:53.898Z,51.00
2023-04-25T13:21:35.203Z,49.91
2023-04-25T13:23:16.761Z,48.25
2023-04-25T13:24:58.372Z,49.07
2023-04-25T13:26:39.916Z,47.69
2023-04-25T13:28:21.265Z,49.12
2023-04-25T13:30:02.565Z,49.55
2023-04-25T13:31:43.896Z,49.52
2023-04-25T13:33:25.492Z,49.51
2023-04-25T13:35:09.237Z,48.05
2023-04-25T13:36:52.081Z,47.04
2023-04-25T13:38:33.709Z,46.22
2023-04-25T13:40:15.023Z,45.24
2023-04-25T13:41:56.315Z,45.94
2023-04-25T13:43:37.718Z,47.38
2023-04-25T13:45:19.584Z,43.74
2023-04-25T13:47:02.574Z,42.71
2023-04-25T13:48:44.176Z,42.58
2023-04-25T13:50:25.624Z,42.23
2023-04-25T13:52:07.229Z,43.18
2023-04-25T13:53:48.970Z,41.95
2023-04-25T13:55:30.396Z,42.38
2023-04-25T13:57:11.731Z,40.81
2023-04-25T13:58:53.329Z,40.76
2023-04-25T14:00:34.980Z,41.26
2023-04-25T14:02:16.405Z,41.72
2023-04-25T14:03:57.982Z,40.24
2023-04-25T14:05:39.575Z,40.97
2023-04-25T14:07:21.103Z,40.72
2023-04-25T14:09:02.638Z,40.63
2023-04-25T14:10:44.093Z,42.00
2023-04-25T14:12:25.557Z,41.33
2023-04-25T14:14:07.142Z,41.19
2023-04-25T14:15:48.852Z,41.23
2023-04-25T14:17:30.368Z,40.63
2023-04-25T14:19:11.665Z,41.12
2023-04-25T14:20:52.969Z,42.41
2023-04-25T14:22:34.570Z,40.89
2023-04-25T14:24:16.162Z,39.89
2023-04-25T14:25:57.568Z,40.26
2023-04-25T14:27:38.912Z,37.91
2023-04-25T14:29:20.858Z,38.15
2023-04-25T14:31:02.587Z,40.10
2023-04-25T14:32:44.295Z,38.48
2023-04-25T14:34:25.697Z,38.51
2023-04-25T14:36:07.282Z,38.75
2023-04-25T14:37:48.712Z,39.05
2023-04-25T14:39:29.994Z,38.55
2023-04-25T14:41:11.343Z,39.30
2023-04-25T14:42:52.652Z,38.30
2023-04-25T14:44:33.925Z,38.94
2023-04-25T14:46:15.655Z,40.00
2023-04-25T14:47:57.312Z,40.16
2023-04-25T14:49:38.836Z,40.42
2023-04-25T14:51:20.419Z,40.83
2023-04-25T14:53:01.947Z,39.81
2023-04-25T14:54:43.491Z,39.72
2023-04-25T14:56:25.207Z,40.55
2023-04-25T14:58:06.612Z,40.14
2023-04-25T14:59:47.899Z,40.37
2023-04-25T15:01:29.233Z,41.28
2023-04-25T15:03:11.112Z,41.15
2023-04-25T15:04:52.920Z,42.68
2023-04-25T15:06:34.247Z,42.46
2023-04-25T15:08:15.557Z,42.66
2023-04-25T15:09:56.861Z,42.11
2023-04-25T15:11:38.845Z,41.98
2023-04-25T15:13:20.327Z,42.38
2023-04-25T15:15:01.924Z,43.02
2023-04-25T15:16:43.669Z,43.13
2023-04-25T15:18:25.245Z,42.90
2023-04-25T15:20:06.610Z,43.05
2023-04-25T15:21:48.150Z,43.57
2023-04-25T15:23:29.927Z,42.87
2023-04-25T15:25:11.376Z,42.51
2023-04-25T15:26:52.688Z,42.37
2023-04-25T15:28:33.970Z,42.11
2023-04-25T15:30:15.941Z,42.34
2023-04-25T15:31:57.687Z,43.66
2023-04-25T15:33:39.129Z,43.99
2023-04-25T15:35:20.541Z,43.12
2023-04-25T15:37:01.882Z,42.59
2023-04-25T15:38:43.897Z,42.29
2023-04-25T15:40:25.442Z,42.74
2023-04-25T15:42:06.977Z,42.75
2023-04-25T15:43:49.089Z,42.88
2023-04-25T15:45:31.021Z,42.83
2023-04-25T15:47:12.409Z,43.09
2023-04-25T15:48:53.747Z,42.91
2023-04-25T15:50:36.302Z,41.32
2023-04-25T15:52:17.571Z,41.00
2023-04-25T15:53:59.032Z,42.06
2023-04-25T15:55:40.592Z,43.12
2023-04-25T15:57:22.100Z,44.08
2023-04-25T15:59:03.620Z,43.17
2023-04-25T16:00:44.934Z,42.73
2023-04-25T16:02:26.485Z,42.63
2023-04-25T16:04:08.429Z,42.51
2023-04-25T16:05:50.073Z,42.29
2023-04-25T16:07:31.556Z,42.67
2023-04-25T16:09:13.234Z,42.18
2023-04-25T16:10:54.647Z,41.32
2023-04-25T16:12:35.935Z,41.56
2023-04-25T16:14:17.240Z,41.83
2023-04-25T16:15:58.588Z,41.79
2023-04-25T16:17:39.933Z,41.53
2023-04-25T16:19:22.091Z,41.92
2023-04-25T16:21:03.897Z,41.86
2023-04-25T16:22:45.341Z,41.44
2023-04-25T16:24:26.604Z,41.16
2023-04-25T16:26:08.177Z,42.11
2023-04-25T16:27:49.672Z,42.60
2023-04-25T16:29:31.010Z,42.96
2023-04-25T16:31:12.405Z,42.22
2023-04-25T16:32:53.792Z,42.25
2023-04-25T16:34:35.118Z,41.95
2023-04-25T16:36:17.146Z,41.48
2023-04-25T16:37:58.628Z,41.97
2023-04-25T16:39:40.119Z,41.62
2023-04-25T16:41:21.642Z,41.68
2023-04-25T16:43:02.982Z,40.92
2023-04-25T16:44:44.290Z,41.89
2023-04-25T16:46:25.702Z,41.74
2023-04-25T16:48:07.044Z,41.40
2023-04-25T16:49:48.411Z,42.17
2023-04-25T16:51:29.732Z,42.18
2023-04-25T16:53:11.009Z,41.64
2023-04-25T16:54:52.324Z,41.48
2023-04-25T16:56:33.633Z,41.32
2023-04-25T16:58:15.182Z,41.57
2023-04-25T16:59:56.737Z,41.61
2023-04-25T17:01:38.237Z,41.56
2023-04-25T17:03:19.861Z,41.97
2023-04-25T17:05:01.270Z,41.45
2023-04-25T17:06:42.830Z,41.79
2023-04-25T17:08:24.277Z,41.43
2023-04-25T17:10:05.546Z,41.91
2023-04-25T17:11:46.832Z,41.19
2023-04-25T17:13:30.963Z,40.49
2023-04-25T17:15:12.743Z,39.82
2023-04-25T17:16:54.758Z,39.16
2023-04-25T17:18:36.398Z,38.63
2023-04-25T17:20:17.882Z,38.07
2023-04-25T17:21:59.420Z,38.62
2023-04-25T17:23:40.969Z,39.79
2023-04-25T17:25:22.427Z,40.79
2023-04-25T17:27:03.710Z,41.69
2023-04-25T17:28:45.008Z,42.26
2023-04-25T17:30:26.297Z,41.99
2023-04-25T17:32:07.592Z,42.29
2023-04-25T17:33:48.939Z,40.99
2023-04-25T17:35:30.255Z,41.65
2023-04-25T17:37:11.586Z,41.71
2023-04-25T17:38:53.075Z,41.91
2023-04-25T17:40:34.448Z,41.67
2023-04-25T17:42:15.787Z,41.21
2023-04-25T17:43:57.261Z,41.28
2023-04-25T17:45:39.028Z,40.72
2023-04-25T17:47:20.359Z,39.60
2023-04-25T17:49:01.658Z,40.72
2023-04-25T17:50:43.008Z,40.35
2023-04-25T17:52:24.306Z,40.04
2023-04-25T17:54:06.116Z,39.44
2023-04-25T17:55:47.409Z,39.39
2023-04-25T17:57:28.745Z,39.52
2023-04-25T17:59:10.031Z,40.62
2023-04-25T18:00:51.365Z,39.72
2023-04-25T18:02:32.975Z,40.63
2023-04-25T18:04:14.573Z,40.32
2023-04-25T18:05:55.908Z,39.87
2023-04-25T18:07:37.846Z,40.29
2023-04-25T18:09:19.303Z,40.44
2023-04-25T18:11:00.607Z,40.36
2023-04-25T18:12:42.201Z,40.59
2023-04-25T18:14:23.692Z,40.88
2023-04-25T18:16:05.071Z,40.68
2023-04-25T18:17:46.520Z,40.32
2023-04-25T18:19:27.877Z,40.23
2023-04-25T18:21:09.724Z,40.60
2023-04-25T18:22:51.699Z,39.79
2023-04-25T18:24:33.437Z,40.33
2023-04-25T18:26:14.874Z,40.56
2023-04-25T18:27:56.368Z,40.11
2023-04-25T18:29:37.781Z,40.23
2023-04-25T18:31:19.097Z,40.60
2023-04-25T18:33:00.428Z,39.96
2023-04-25T18:34:42.071Z,39.57
2023-04-25T18:36:23.754Z,38.97
2023-04-25T18:38:05.295Z,39.65
2023-04-25T18:39:46.593Z,40.67
2023-04-25T18:41:52.192Z,42.75
2023-04-25T18:43:29.589Z,42.92
2023-04-25T18:45:10.892Z,43.00
2023-04-25T18:46:52.429Z,44.21
2023-04-25T18:48:33.934Z,43.69
2023-04-25T18:50:15.199Z,44.16
2023-04-25T18:51:56.747Z,43.31
2023-04-25T18:53:38.253Z,43.48
2023-04-25T18:55:19.760Z,43.12
2023-04-25T18:57:01.391Z,42.83
2023-04-25T18:58:42.712Z,42.01
2023-04-25T19:00:24.029Z,40.14
2023-04-25T19:02:05.684Z,39.10
2023-04-25T19:03:47.312Z,39.78
2023-04-25T19:05:29.464Z,42.03
2023-04-25T19:07:11.223Z,42.53
2023-04-25T19:08:53.062Z,42.90
2023-04-25T19:10:34.754Z,42.90
2023-04-25T19:12:16.086Z,43.13
2023-04-25T19:13:57.370Z,44.13
2023-04-25T19:15:38.672Z,44.14
2023-04-25T19:17:20.689Z,44.26
2023-04-25T19:19:02.184Z,44.18
2023-04-25T19:20:43.503Z,44.29
2023-04-25T19:22:24.790Z,43.61
2023-04-25T19:24:06.078Z,43.03
2023-04-25T19:25:47.388Z,45.40
2023-04-25T19:27:28.662Z,44.50
2023-04-25T19:29:10.707Z,45.22
2023-04-25T19:30:52.368Z,45.01
2023-04-25T19:32:33.684Z,44.62
2023-04-25T19:34:15.252Z,43.79
2023-04-25T19:35:56.760Z,42.62
2023-04-25T19:37:38.042Z,42.53
2023-04-25T19:39:19.383Z,40.96
2023-04-25T19:41:00.745Z,41.34
2023-04-25T19:42:42.143Z,40.45
2023-04-25T19:44:23.772Z,40.26
2023-04-25T19:46:05.406Z,40.01
2023-04-25T19:47:46.979Z,42.27
2023-04-25T19:49:28.474Z,42.10
2023-04-25T19:51:09.793Z,43.42
2023-04-25T19:52:51.322Z,45.38
2023-04-25T19:54:33.352Z,44.24
2023-04-25T19:56:14.864Z,45.01
2023-04-25T19:57:56.367Z,42.41
2023-04-25T19:59:37.644Z,42.12
2023-04-25T20:01:18.988Z,41.65
2023-04-25T20:03:00.773Z,41.48
2023-04-25T20:04:42.604Z,41.95
2023-04-25T20:06:24.051Z,41.86
2023-04-25T20:08:05.371Z,41.46
2023-04-25T20:09:46.650Z,40.53
2023-04-25T20:11:28.168Z,39.82
2023-04-25T20:13:09.671Z,41.01
2023-04-25T20:14:50.956Z,40.53
2023-04-25T20:16:32.555Z,40.54
2023-04-25T20:18:14.176Z,39.53
2023-04-25T20:19:55.482Z,38.84
2023-04-25T20:21:37.044Z,38.62
2023-04-25T20:23:18.512Z,39.01
2023-04-25T20:24:59.810Z,38.20
2023-04-25T20:26:41.596Z,38.75
2023-04-25T20:28:23.206Z,38.25
2023-04-25T20:30:04.576Z,39.67
2023-04-25T20:31:45.884Z,40.75
2023-04-25T20:33:27.203Z,40.20
2023-04-25T20:35:08.530Z,40.46
2023-04-25T20:36:49.835Z,42.48
2023-04-25T20:38:31.461Z,42.20
2023-04-25T20:40:13.234Z,41.80
2023-04-25T20:41:54.597Z,41.42
2023-04-25T20:43:36.170Z,42.63
2023-04-25T20:45:17.801Z,39.13
2023-04-25T20:46:59.310Z,39.28
2023-04-25T20:48:40.768Z,38.87
2023-04-25T20:50:22.093Z,38.83
2023-04-25T20:52:03.374Z,39.98
2023-04-25T20:53:44.893Z,41.23
2023-04-25T20:55:26.467Z,42.52
2023-04-25T20:57:07.797Z,42.12
2023-04-25T20:58:49.145Z,41.23
2023-04-25T21:00:30.435Z,41.90
2023-04-25T21:02:11.801Z,41.69
2023-04-25T21:03:53.643Z,42.48
2023-04-25T21:05:35.469Z,42.46
2023-04-25T21:07:16.919Z,42.49
2023-04-25T21:08:58.238Z,40.00
2023-04-25T21:10:39.778Z,41.24
2023-04-25T21:12:21.290Z,42.18
2023-04-25T21:14:02.601Z,41.62
2023-04-25T21:15:43.907Z,42.34
2023-04-25T21:17:25.195Z,42.26
2023-04-25T21:19:06.788Z,42.56
2023-04-25T21:20:48.226Z,41.86
2023-04-25T21:22:29.492Z,42.09
2023-04-25T21:24:11.058Z,40.49
2023-04-25T21:25:52.585Z,41.63
2023-04-25T21:27:33.880Z,42.60
2023-04-25T21:29:15.178Z,43.19
2023-04-25T21:30:56.470Z,41.55
2023-04-25T21:32:38.515Z,42.40
2023-04-25T21:34:20.223Z,41.37
2023-04-25T21:36:01.688Z,41.59
2023-04-25T21:37:42.979Z,40.89
2023-04-25T21:39:24.288Z,41.20
2023-04-25T21:41:05.648Z,40.88
2023-04-25T21:42:47.686Z,41.93
2023-04-25T21:44:29.154Z,41.23
2023-04-25T21:47:54.880Z,40.15
2023-04-25T21:49:36.409Z,39.26
2023-04-25T21:51:17.678Z,42.54
2023-04-25T21:52:59.212Z,41.70